createdAt,value
2023-07-25T00:00:17.928Z,86.76
2023-07-25T00:01:11.317Z,86.53
2023-07-25T00:01:44.833Z,86.47
2023-07-25T00:02:18.117Z,86.39
2023-07-25T00:02:51.246Z,86.42
2023-07-25T00:03:24.367Z,86.47
2023-07-25T00:03:57.518Z,86.52
2023-07-25T00:04:30.761Z,86.47
2023-07-25T00:05:07.239Z,86.55
2023-07-25T00:05:40.535Z,86.40
2023-07-25T00:06:13.892Z,86.49
2023-07-25T00:06:47.251Z,86.56
2023-07-25T00:07:20.492Z,86.42
2023-07-25T00:07:53.860Z,86.50
2023-07-25T00:08:26.986Z,86.48
2023-07-25T00:09:00.215Z,86.55
2023-07-25T00:09:33.450Z,86.59
2023-07-25T00:10:07.038Z,86.59
2023-07-25T00:10:40.257Z,86.57
2023-07-25T00:11:15.045Z,86.57
2023-07-25T00:11:48.222Z,86.59
2023-07-25T00:12:21.439Z,86.60
2023-07-25T00:12:56.524Z,86.68
2023-07-25T00:13:29.981Z,86.76
2023-07-25T00:14:03.299Z,86.73
2023-07-25T00:14:36.524Z,86.61
2023-07-25T00:15:10.025Z,86.77
2023-07-25T00:15:43.371Z,86.70
2023-07-25T00:16:16.581Z,86.68
2023-07-25T00:16:50.768Z,86.72
2023-07-25T00:17:24.102Z,86.70
2023-07-25T00:17:58.247Z,86.80
2023-07-25T00:18:31.494Z,86.93
2023-07-25T00:19:04.632Z,86.82
2023-07-25T00:19:37.793Z,86.80
2023-07-25T00:20:11.529Z,86.75
2023-07-25T00:20:44.744Z,86.68
2023-07-25T00:21:18.262Z,86.82
2023-07-25T00:21:51.460Z,86.76
2023-07-25T00:22:25.038Z,86.57
2023-07-25T00:22:58.338Z,86.64
2023-07-25T00:23:31.542Z,86.59
2023-07-25T00:24:05.544Z,86.62
2023-07-25T00:24:38.692Z,86.73
2023-07-25T00:25:11.973Z,86.79
2023-07-25T00:25:45.233Z,86.82
2023-07-25T00:26:18.681Z,86.83
2023-07-25T00:26:51.965Z,86.81
2023-07-25T00:27:25.222Z,86.82
2023-07-25T00:27:58.640Z,86.90
2023-07-25T00:28:31.669Z,87.01
2023-07-25T00:29:05.847Z,86.97
2023-07-25T00:29:39.310Z,87.04
2023-07-25T00:30:12.571Z,87.12
2023-07-25T00:30:45.765Z,87.20
2023-07-25T00:31:19.163Z,87.17
2023-07-25T00:31:52.432Z,87.33
2023-07-25T00:32:25.589Z,87.26
2023-07-25T00:32:58.834Z,87.21
2023-07-25T00:33:32.039Z,87.39
2023-07-25T00:34:07.797Z,87.32
2023-07-25T00:34:41.277Z,87.46
2023-07-25T00:35:14.491Z,87.46
2023-07-25T00:35:54.680Z,87.52
2023-07-25T00:36:27.924Z,87.67
2023-07-25T00:37:01.131Z,87.66
2023-07-25T00:37:34.462Z,87.79
2023-07-25T00:38:07.590Z,87.82
2023-07-25T00:38:40.796Z,87.74
2023-07-25T00:39:14.210Z,87.84
2023-07-25T00:39:47.558Z,87.69
2023-07-25T00:40:20.866Z,87.65
2023-07-25T00:40:54.032Z,87.59
2023-07-25T00:41:27.313Z,87.65
2023-07-25T00:42:00.442Z,87.53
2023-07-25T00:42:33.802Z,87.61
2023-07-25T00:43:06.949Z,87.51
2023-07-25T00:43:40.126Z,87.64
2023-07-25T00:44:13.349Z,87.51
2023-07-25T00:44:46.580Z,87.68
2023-07-25T00:45:20.140Z,87.63
2023-07-25T00:45:53.411Z,87.56
2023-07-25T00:46:26.735Z,87.54
2023-07-25T00:47:00.036Z,87.51
2023-07-25T00:47:34.344Z,87.54
2023-07-25T00:48:07.763Z,87.37
2023-07-25T00:48:41.125Z,87.55
2023-07-25T00:49:14.420Z,87.57
2023-07-25T00:49:48.786Z,87.58
2023-07-25T00:50:22.403Z,87.55
2023-07-25T00:50:56.116Z,87.60
2023-07-25T00:51:30.804Z,87.54
2023-07-25T00:52:04.765Z,87.63
2023-07-25T00:52:38.446Z,87.68
2023-07-25T00:53:13.695Z,87.64
2023-07-25T00:53:47.252Z,87.65
2023-07-25T00:54:20.409Z,87.72
2023-07-25T00:54:53.605Z,87.59
2023-07-25T00:55:29.027Z,87.65
2023-07-25T00:56:02.792Z,87.73
2023-07-25T00:56:36.076Z,87.80
2023-07-25T00:57:09.177Z,87.83
2023-07-25T00:57:42.367Z,87.93
2023-07-25T00:58:15.714Z,87.95
2023-07-25T00:58:48.803Z,88.06
2023-07-25T00:59:21.946Z,88.14
2023-07-25T00:59:55.176Z,88.04
2023-07-25T01:00:28.463Z,88.16
2023-07-25T01:01:08.424Z,88.11
2023-07-25T01:01:41.901Z,88.18
2023-07-25T01:02:16.333Z,88.12
2023-07-25T01:02:50.162Z,88.18
2023-07-25T01:03:23.723Z,88.20
2023-07-25T01:03:57.236Z,88.06
2023-07-25T01:04:30.572Z,88.18
2023-07-25T01:05:05.641Z,88.16
2023-07-25T01:05:42.531Z,87.99
2023-07-25T01:06:18.573Z,88.16
2023-07-25T01:06:53.680Z,88.00
2023-07-25T01:07:27.125Z,88.01
2023-07-25T01:08:01.120Z,88.03
2023-07-25T01:08:34.454Z,88.15
2023-07-25T01:09:07.885Z,88.23
2023-07-25T01:09:44.103Z,88.04
2023-07-25T01:10:17.314Z,88.08
2023-07-25T01:10:50.550Z,88.11
2023-07-25T01:11:24.773Z,88.10
2023-07-25T01:11:57.988Z,88.15
2023-07-25T01:12:31.278Z,88.22
2023-07-25T01:13:04.329Z,87.95
2023-07-25T01:13:37.561Z,88.02
2023-07-25T01:14:10.704Z,88.00
2023-07-25T01:14:44.618Z,88.04
2023-07-25T01:15:17.998Z,88.18
2023-07-25T01:15:53.137Z,88.25
2023-07-25T01:16:28.922Z,88.22
2023-07-25T01:17:13.742Z,88.07
2023-07-25T01:17:46.977Z,88.16
2023-07-25T01:18:21.301Z,88.19
2023-07-25T01:18:55.480Z,88.14
2023-07-25T01:19:31.505Z,88.00
2023-07-25T01:20:09.548Z,88.07
2023-07-25T01:20:44.034Z,88.20
2023-07-25T01:21:17.472Z,88.36
2023-07-25T01:21:50.800Z,88.53
2023-07-25T01:22:27.050Z,88.60
2023-07-25T01:23:02.859Z,88.62
2023-07-25T01:23:38.384Z,88.77
2023-07-25T01:24:11.811Z,88.75
2023-07-25T01:24:48.086Z,88.73
2023-07-25T01:25:22.411Z,88.77
2023-07-25T01:25:55.511Z,88.81
2023-07-25T01:26:28.712Z,88.90
2023-07-25T01:27:02.556Z,88.87
2023-07-25T01:27:35.693Z,88.93
2023-07-25T01:28:08.855Z,88.80
2023-07-25T01:28:42.100Z,88.82
2023-07-25T01:29:15.341Z,88.91
2023-07-25T01:29:48.441Z,88.87
2023-07-25T01:30:21.727Z,88.73
2023-07-25T01:30:54.997Z,88.78
2023-07-25T01:31:28.234Z,88.79
2023-07-25T01:32:01.503Z,88.85
2023-07-25T01:32:34.726Z,88.89
2023-07-25T01:33:07.916Z,88.88
2023-07-25T01:33:41.411Z,88.73
2023-07-25T01:34:14.936Z,88.77
2023-07-25T01:34:48.095Z,88.75
2023-07-25T01:35:21.804Z,88.71
2023-07-25T01:35:54.924Z,88.54
2023-07-25T01:36:28.095Z,88.56
2023-07-25T01:37:01.286Z,88.56
2023-07-25T01:37:34.446Z,88.87
2023-07-25T01:38:07.473Z,88.92
2023-07-25T01:38:40.642Z,88.97
2023-07-25T01:39:13.839Z,88.96
2023-07-25T01:39:47.008Z,88.92
2023-07-25T01:40:20.172Z,88.80
2023-07-25T01:40:53.383Z,88.81
2023-07-25T01:41:26.535Z,88.75
2023-07-25T01:41:59.695Z,88.76
2023-07-25T01:42:33.276Z,88.85
2023-07-25T01:43:07.281Z,88.97
2023-07-25T01:43:40.440Z,89.08
2023-07-25T01:44:13.714Z,89.07
2023-07-25T01:44:46.984Z,89.22
2023-07-25T01:45:20.340Z,89.27
2023-07-25T01:45:54.025Z,89.23
2023-07-25T01:46:27.231Z,89.11
2023-07-25T01:47:00.426Z,89.17
2023-07-25T01:47:34.532Z,89.18
2023-07-25T01:48:07.881Z,89.02
2023-07-25T01:48:41.030Z,89.11
2023-07-25T01:49:14.460Z,89.04
2023-07-25T01:49:47.619Z,88.86
2023-07-25T01:50:20.873Z,89.00
2023-07-25T01:50:54.035Z,88.91
2023-07-25T01:51:28.106Z,88.94
2023-07-25T01:52:01.645Z,88.76
2023-07-25T01:52:35.039Z,88.89
2023-07-25T01:53:08.152Z,88.86
2023-07-25T01:53:41.525Z,88.83
2023-07-25T01:54:14.673Z,88.86
2023-07-25T01:54:50.450Z,88.72
2023-07-25T01:55:23.854Z,88.79
2023-07-25T01:55:57.316Z,88.89
2023-07-25T01:56:30.494Z,88.82
2023-07-25T01:57:04.546Z,88.94
2023-07-25T01:57:37.676Z,88.74
2023-07-25T01:58:10.853Z,88.88
2023-07-25T01:58:44.067Z,88.93
2023-07-25T01:59:17.874Z,88.85
2023-07-25T01:59:53.029Z,88.89
2023-07-25T02:00:26.288Z,88.94
2023-07-25T02:01:00.675Z,88.82
2023-07-25T02:01:34.842Z,88.79
2023-07-25T02:02:08.459Z,88.77
2023-07-25T02:02:41.664Z,88.76
2023-07-25T02:03:19.561Z,88.89
2023-07-25T02:03:52.876Z,88.86
2023-07-25T02:04:26.200Z,88.88
2023-07-25T02:04:59.524Z,88.96
2023-07-25T02:05:32.740Z,88.93
2023-07-25T02:06:05.988Z,88.78
2023-07-25T02:06:39.264Z,88.55
2023-07-25T02:07:12.488Z,88.50
2023-07-25T02:07:45.547Z,88.60
2023-07-25T02:08:18.762Z,88.67
2023-07-25T02:08:51.967Z,88.77
2023-07-25T02:09:25.489Z,88.82
2023-07-25T02:09:58.804Z,88.86
2023-07-25T02:10:33.508Z,88.96
2023-07-25T02:11:06.673Z,89.04
2023-07-25T02:11:39.846Z,89.08
2023-07-25T02:12:13.004Z,89.26
2023-07-25T02:12:46.230Z,89.39
2023-07-25T02:13:19.575Z,89.39
2023-07-25T02:13:52.823Z,89.46
2023-07-25T02:14:26.032Z,89.46
2023-07-25T02:14:59.211Z,89.49
2023-07-25T02:15:32.323Z,89.54
2023-07-25T02:16:05.833Z,89.45
2023-07-25T02:16:41.254Z,89.51
2023-07-25T02:17:14.405Z,89.51
2023-07-25T02:17:47.644Z,89.49
2023-07-25T02:18:20.908Z,89.43
2023-07-25T02:18:54.219Z,89.53
2023-07-25T02:19:27.574Z,89.72
2023-07-25T02:20:00.725Z,89.62
2023-07-25T02:20:34.469Z,89.70
2023-07-25T02:21:07.630Z,89.67
2023-07-25T02:21:40.703Z,89.67
2023-07-25T02:22:13.832Z,89.72
2023-07-25T02:22:46.936Z,89.69
2023-07-25T02:23:20.054Z,89.69
2023-07-25T02:23:53.207Z,89.84
2023-07-25T02:24:26.440Z,89.93
2023-07-25T02:24:59.605Z,89.82
2023-07-25T02:25:33.380Z,89.87
2023-07-25T02:26:06.814Z,89.97
2023-07-25T02:26:40.029Z,89.94
2023-07-25T02:27:13.177Z,89.98
2023-07-25T02:27:46.215Z,90.01
2023-07-25T02:28:19.437Z,89.99
2023-07-25T02:28:52.886Z,90.05
2023-07-25T02:29:25.986Z,90.11
2023-07-25T02:29:59.075Z,90.21
2023-07-25T02:30:32.219Z,90.21
2023-07-25T02:31:05.355Z,90.20
2023-07-25T02:31:38.615Z,90.34
2023-07-25T02:32:11.731Z,90.45
2023-07-25T02:32:44.930Z,90.43
2023-07-25T02:33:18.251Z,90.37
2023-07-25T02:33:51.535Z,90.57
2023-07-25T02:34:24.707Z,90.49
2023-07-25T02:34:57.907Z,90.52
2023-07-25T02:35:31.123Z,90.44
2023-07-25T02:36:04.440Z,90.42
2023-07-25T02:36:37.558Z,90.24
2023-07-25T02:37:10.832Z,90.31
2023-07-25T02:37:44.075Z,90.36
2023-07-25T02:38:17.517Z,90.22
2023-07-25T02:38:52.248Z,90.35
2023-07-25T02:39:25.488Z,90.34
2023-07-25T02:39:58.598Z,90.42
2023-07-25T02:40:31.893Z,90.48
2023-07-25T02:41:05.001Z,90.55
2023-07-25T02:41:38.216Z,90.47
2023-07-25T02:42:11.497Z,90.46
2023-07-25T02:42:44.745Z,90.49
2023-07-25T02:43:17.919Z,90.59
2023-07-25T02:43:51.576Z,90.53
2023-07-25T02:44:24.850Z,90.47
2023-07-25T02:44:57.933Z,90.50
2023-07-25T02:45:31.034Z,90.50
2023-07-25T02:46:04.344Z,90.32
2023-07-25T02:46:37.416Z,90.41
2023-07-25T02:47:10.582Z,90.33
2023-07-25T02:47:43.821Z,90.28
2023-07-25T02:48:17.597Z,90.27
2023-07-25T02:48:50.710Z,90.40
2023-07-25T02:49:23.908Z,90.42
2023-07-25T02:49:57.063Z,90.29
2023-07-25T02:50:30.300Z,90.22
2023-07-25T02:51:03.539Z,90.22
2023-07-25T02:51:36.636Z,90.17
2023-07-25T02:52:10.102Z,90.19
2023-07-25T02:52:43.629Z,90.22
2023-07-25T02:53:16.739Z,90.25
2023-07-25T02:53:49.948Z,90.14
2023-07-25T02:54:23.035Z,90.03
2023-07-25T02:54:56.146Z,90.11
2023-07-25T02:55:30.918Z,90.02
2023-07-25T02:56:04.331Z,90.09
2023-07-25T02:56:37.499Z,90.16
2023-07-25T02:57:10.824Z,90.20
2023-07-25T02:57:43.988Z,90.04
2023-07-25T02:58:17.224Z,90.10
2023-07-25T02:58:50.449Z,89.94
2023-07-25T02:59:23.608Z,89.90
2023-07-25T02:59:56.828Z,89.89
2023-07-25T03:00:30.101Z,89.97
2023-07-25T03:01:04.416Z,89.87
2023-07-25T03:01:37.692Z,89.73
2023-07-25T03:02:11.924Z,89.83
2023-07-25T03:02:45.193Z,90.00
2023-07-25T03:03:18.678Z,89.96
2023-07-25T03:03:51.870Z,90.09
2023-07-25T03:04:25.010Z,90.22
2023-07-25T03:04:58.168Z,90.24
2023-07-25T03:05:31.336Z,90.17
2023-07-25T03:06:04.534Z,90.07
2023-07-25T03:06:37.621Z,90.09
2023-07-25T03:07:10.829Z,90.20
2023-07-25T03:07:44.936Z,90.28
2023-07-25T03:08:18.631Z,90.31
2023-07-25T03:08:51.792Z,90.26
2023-07-25T03:09:24.953Z,90.25
2023-07-25T03:09:58.043Z,90.22
2023-07-25T03:10:31.456Z,90.28
2023-07-25T03:11:04.712Z,90.32
2023-07-25T03:11:38.097Z,90.47
2023-07-25T03:12:11.284Z,90.42
2023-07-25T03:12:44.426Z,90.45
2023-07-25T03:13:17.598Z,90.45
2023-07-25T03:13:50.722Z,90.34
2023-07-25T03:14:23.856Z,90.22
2023-07-25T03:14:56.984Z,90.07
2023-07-25T03:15:30.048Z,90.22
2023-07-25T03:16:03.364Z,90.16
2023-07-25T03:16:36.586Z,90.18
2023-07-25T03:17:09.747Z,90.25
2023-07-25T03:17:44.814Z,90.26
2023-07-25T03:18:19.937Z,90.28
2023-07-25T03:18:53.076Z,90.24
2023-07-25T03:19:26.175Z,90.16
2023-07-25T03:19:59.460Z,90.15
2023-07-25T03:20:32.717Z,90.12
2023-07-25T03:21:05.946Z,90.12
2023-07-25T03:21:39.093Z,90.07
2023-07-25T03:22:12.320Z,90.18
2023-07-25T03:22:45.623Z,90.20
2023-07-25T03:23:18.822Z,90.25
2023-07-25T03:23:51.977Z,90.25
2023-07-25T03:24:25.122Z,90.29
2023-07-25T03:24:58.332Z,90.39
2023-07-25T03:25:31.917Z,90.35
2023-07-25T03:26:05.091Z,90.31
2023-07-25T03:26:38.320Z,90.18
2023-07-25T03:27:11.601Z,90.01
2023-07-25T03:27:44.889Z,90.06
2023-07-25T03:28:18.149Z,90.00
2023-07-25T03:28:51.359Z,90.04
2023-07-25T03:29:24.643Z,90.11
2023-07-25T03:29:57.941Z,90.03
2023-07-25T03:30:31.155Z,90.10
2023-07-25T03:31:06.008Z,90.12
2023-07-25T03:31:39.139Z,90.16
2023-07-25T03:32:12.458Z,90.18
2023-07-25T03:32:45.549Z,90.14
2023-07-25T03:33:18.801Z,90.04
2023-07-25T03:33:52.038Z,90.03
2023-07-25T03:34:25.580Z,89.99
2023-07-25T03:34:58.783Z,90.21
2023-07-25T03:35:32.009Z,90.12
2023-07-25T03:36:06.644Z,90.20
2023-07-25T03:36:39.989Z,90.12
2023-07-25T03:37:13.197Z,90.18
2023-07-25T03:37:46.411Z,90.21
2023-07-25T03:38:19.634Z,90.14
2023-07-25T03:38:52.861Z,90.09
2023-07-25T03:39:26.191Z,90.02
2023-07-25T03:39:59.334Z,90.00
2023-07-25T03:40:32.504Z,90.00
2023-07-25T03:41:05.813Z,90.00
2023-07-25T03:41:39.028Z,90.16
2023-07-25T03:42:12.280Z,90.12
2023-07-25T03:42:45.445Z,90.17
2023-07-25T03:43:18.699Z,90.18
2023-07-25T03:43:52.313Z,90.11
2023-07-25T03:44:25.586Z,90.07
2023-07-25T03:44:58.744Z,90.05
2023-07-25T03:45:32.111Z,89.85
2023-07-25T03:46:05.403Z,89.84
2023-07-25T03:46:38.653Z,89.77
2023-07-25T03:47:11.927Z,90.01
2023-07-25T03:47:45.131Z,89.94
2023-07-25T03:48:18.597Z,89.93
2023-07-25T03:48:51.798Z,89.78
2023-07-25T03:49:25.160Z,89.92
2023-07-25T03:49:58.376Z,89.82
2023-07-25T03:50:32.176Z,89.93
2023-07-25T03:51:05.261Z,89.94
2023-07-25T03:51:38.826Z,89.95
2023-07-25T03:52:12.060Z,89.95
2023-07-25T03:52:45.746Z,89.96
2023-07-25T03:53:19.713Z,89.84
2023-07-25T03:53:52.849Z,89.66
2023-07-25T03:54:26.848Z,89.72
2023-07-25T03:55:00.034Z,89.67
2023-07-25T03:55:33.624Z,89.74
2023-07-25T03:56:06.729Z,89.67
2023-07-25T03:56:39.996Z,89.60
2023-07-25T03:57:13.215Z,89.64
2023-07-25T03:57:46.373Z,89.70
2023-07-25T03:58:19.573Z,89.72
2023-07-25T03:58:52.754Z,89.74
2023-07-25T03:59:25.957Z,89.81
2023-07-25T03:59:59.041Z,89.89
2023-07-25T04:00:32.135Z,90.01
2023-07-25T04:01:05.289Z,89.90
2023-07-25T04:01:38.387Z,89.89
2023-07-25T04:02:11.915Z,89.82
2023-07-25T04:02:45.853Z,89.86
2023-07-25T04:03:20.406Z,89.85
2023-07-25T04:03:53.949Z,89.87
2023-07-25T04:04:27.417Z,89.87
2023-07-25T04:05:00.809Z,89.80
2023-07-25T04:05:34.042Z,89.85
2023-07-25T04:06:07.226Z,89.79
2023-07-25T04:06:40.468Z,89.75
2023-07-25T04:07:13.712Z,89.75
2023-07-25T04:07:47.035Z,89.92
2023-07-25T04:08:20.371Z,89.89
2023-07-25T04:08:53.604Z,89.95
2023-07-25T04:09:26.820Z,90.00
2023-07-25T04:09:59.984Z,90.02
2023-07-25T04:10:33.228Z,90.09
2023-07-25T04:11:06.420Z,90.04
2023-07-25T04:11:39.502Z,90.21
2023-07-25T04:12:12.761Z,90.20
2023-07-25T04:12:46.477Z,90.36
2023-07-25T04:13:19.708Z,90.28
2023-07-25T04:13:52.999Z,90.25
2023-07-25T04:14:26.154Z,90.25
2023-07-25T04:14:59.777Z,90.20
2023-07-25T04:15:32.955Z,90.20
2023-07-25T04:16:06.926Z,90.14
2023-07-25T04:16:40.240Z,90.11
2023-07-25T04:17:13.458Z,90.23
2023-07-25T04:17:46.773Z,90.32
2023-07-25T04:18:20.083Z,90.33
2023-07-25T04:18:53.191Z,90.47
2023-07-25T04:19:26.312Z,90.48
2023-07-25T04:19:59.435Z,90.38
2023-07-25T04:20:32.667Z,90.22
2023-07-25T04:21:05.836Z,90.36
2023-07-25T04:21:39.157Z,90.24
2023-07-25T04:22:12.869Z,90.30
2023-07-25T04:22:46.047Z,90.22
2023-07-25T04:23:19.266Z,90.12
2023-07-25T04:23:52.524Z,90.27
2023-07-25T04:24:25.804Z,90.39
2023-07-25T04:24:59.238Z,90.37
2023-07-25T04:25:32.414Z,90.37
2023-07-25T04:26:05.517Z,90.50
2023-07-25T04:26:38.698Z,90.47
2023-07-25T04:27:11.919Z,90.56
2023-07-25T04:27:45.927Z,90.58
2023-07-25T04:28:19.169Z,90.72
2023-07-25T04:28:52.335Z,90.69
2023-07-25T04:29:25.630Z,90.79
2023-07-25T04:29:58.829Z,90.86
2023-07-25T04:30:32.063Z,90.86
2023-07-25T04:31:05.312Z,90.77
2023-07-25T04:31:38.446Z,90.73
2023-07-25T04:32:11.511Z,90.54
2023-07-25T04:32:44.656Z,90.64
2023-07-25T04:33:17.957Z,90.66
2023-07-25T04:33:51.556Z,90.48
2023-07-25T04:34:25.191Z,90.52
2023-07-25T04:34:59.680Z,90.49
2023-07-25T04:35:33.474Z,90.37
2023-07-25T04:36:07.735Z,90.57
2023-07-25T04:36:41.062Z,90.35
2023-07-25T04:37:14.273Z,90.34
2023-07-25T04:37:47.518Z,90.40
2023-07-25T04:38:20.851Z,90.35
2023-07-25T04:38:54.168Z,90.39
2023-07-25T04:39:27.353Z,90.24
2023-07-25T04:40:00.489Z,90.33
2023-07-25T04:40:33.948Z,90.43
2023-07-25T04:41:07.331Z,90.46
2023-07-25T04:41:40.552Z,90.61
2023-07-25T04:42:13.762Z,90.74
2023-07-25T04:42:46.970Z,90.67
2023-07-25T04:43:21.717Z,90.91
2023-07-25T04:43:54.962Z,91.00
2023-07-25T04:44:28.139Z,91.08
2023-07-25T04:45:01.297Z,91.04
2023-07-25T04:45:34.529Z,91.07
2023-07-25T04:46:07.799Z,91.09
2023-07-25T04:46:40.970Z,91.05
2023-07-25T04:47:14.217Z,91.22
2023-07-25T04:47:47.449Z,91.29
2023-07-25T04:48:20.628Z,91.38
2023-07-25T04:48:53.770Z,91.48
2023-07-25T04:49:27.008Z,91.52
2023-07-25T04:50:00.468Z,91.63
2023-07-25T04:50:33.948Z,91.82
2023-07-25T04:51:07.166Z,91.92
2023-07-25T04:51:41.497Z,91.96
2023-07-25T04:52:14.717Z,91.95
2023-07-25T04:52:48.109Z,92.11
2023-07-25T04:53:21.527Z,92.09
2023-07-25T04:53:54.859Z,91.97
2023-07-25T04:54:28.127Z,92.16
2023-07-25T04:55:01.210Z,92.12
2023-07-25T04:55:34.475Z,92.06
2023-07-25T04:56:07.561Z,92.09
2023-07-25T04:56:42.527Z,92.12
2023-07-25T04:57:17.510Z,92.14
2023-07-25T04:57:52.578Z,92.22
2023-07-25T04:58:25.741Z,92.05
2023-07-25T04:58:59.114Z,92.18
2023-07-25T04:59:33.427Z,92.35
2023-07-25T05:00:07.739Z,92.26
2023-07-25T05:00:41.226Z,92.28
2023-07-25T05:01:14.601Z,92.24
2023-07-25T05:01:47.804Z,92.34
2023-07-25T05:02:21.840Z,92.15
2023-07-25T05:02:55.143Z,92.13
2023-07-25T05:03:28.641Z,92.27
2023-07-25T05:04:02.242Z,92.20
2023-07-25T05:04:35.739Z,92.19
2023-07-25T05:05:09.492Z,92.31
2023-07-25T05:05:42.795Z,92.24
2023-07-25T05:06:16.019Z,92.33
2023-07-25T05:06:50.253Z,92.19
2023-07-25T05:07:23.527Z,92.16
2023-07-25T05:07:56.704Z,92.22
2023-07-25T05:08:29.951Z,92.27
2023-07-25T05:09:03.763Z,92.20
2023-07-25T05:09:37.023Z,92.15
2023-07-25T05:10:10.544Z,92.12
2023-07-25T05:10:43.818Z,92.16
2023-07-25T05:11:17.080Z,92.19
2023-07-25T05:11:52.634Z,92.18
2023-07-25T05:12:25.865Z,92.13
2023-07-25T05:12:59.082Z,92.22
2023-07-25T05:13:32.310Z,92.06
2023-07-25T05:14:05.821Z,92.06
2023-07-25T05:14:39.185Z,92.10
2023-07-25T05:15:12.475Z,92.11
2023-07-25T05:15:45.710Z,91.95
2023-07-25T05:16:20.444Z,91.86
2023-07-25T05:16:53.668Z,91.96
2023-07-25T05:17:27.029Z,91.93
2023-07-25T05:18:00.554Z,91.86
2023-07-25T05:18:33.910Z,91.89
2023-07-25T05:19:07.148Z,91.89
2023-07-25T05:19:43.165Z,91.91
2023-07-25T05:20:16.832Z,92.04
2023-07-25T05:20:50.094Z,91.88
2023-07-25T05:21:23.358Z,92.04
2023-07-25T05:21:56.517Z,92.07
2023-07-25T05:22:29.913Z,92.00
2023-07-25T05:23:03.174Z,91.98
2023-07-25T05:23:36.342Z,91.98
2023-07-25T05:24:09.649Z,91.91
2023-07-25T05:24:42.896Z,91.99
2023-07-25T05:25:16.202Z,91.97
2023-07-25T05:25:49.403Z,91.95
2023-07-25T05:26:22.549Z,91.85
2023-07-25T05:26:57.116Z,91.99
2023-07-25T05:27:32.340Z,91.99
2023-07-25T05:28:05.625Z,91.87
2023-07-25T05:28:38.842Z,91.73
2023-07-25T05:29:12.072Z,91.69
2023-07-25T05:29:45.415Z,91.70
2023-07-25T05:30:18.766Z,91.68
2023-07-25T05:30:51.982Z,91.62
2023-07-25T05:31:25.282Z,91.63
2023-07-25T05:31:58.627Z,91.47
2023-07-25T05:32:31.886Z,91.46
2023-07-25T05:33:05.200Z,91.43
2023-07-25T05:33:38.319Z,91.49
2023-07-25T05:34:11.497Z,91.49
2023-07-25T05:34:44.743Z,91.46
2023-07-25T05:35:18.246Z,91.57
2023-07-25T05:36:00.816Z,91.52
2023-07-25T05:36:34.266Z,91.44
2023-07-25T05:37:07.716Z,91.44
2023-07-25T05:37:41.093Z,91.53
2023-07-25T05:38:14.286Z,91.56
2023-07-25T05:38:47.480Z,91.45
2023-07-25T05:39:20.668Z,91.43
2023-07-25T05:39:53.809Z,91.45
2023-07-25T05:40:27.003Z,91.37
2023-07-25T05:41:00.252Z,91.39
2023-07-25T05:41:34.265Z,91.19
2023-07-25T05:42:07.885Z,91.23
2023-07-25T05:42:41.012Z,91.28
2023-07-25T05:43:16.532Z,91.22
2023-07-25T05:43:49.828Z,91.22
2023-07-25T05:44:23.017Z,91.21
2023-07-25T05:44:56.154Z,91.06
2023-07-25T05:45:29.379Z,90.97
2023-07-25T05:46:02.782Z,90.79
2023-07-25T05:46:36.435Z,90.76
2023-07-25T05:47:09.865Z,90.71
2023-07-25T05:47:43.056Z,90.75
2023-07-25T05:48:16.231Z,90.63
2023-07-25T05:48:49.603Z,90.60
2023-07-25T05:49:22.716Z,90.66
2023-07-25T05:49:57.030Z,90.59
2023-07-25T05:50:30.189Z,90.63
2023-07-25T05:51:03.368Z,90.58
2023-07-25T05:51:36.643Z,90.43
2023-07-25T05:52:09.763Z,90.45
2023-07-25T05:52:42.909Z,90.38
2023-07-25T05:53:16.143Z,90.34
2023-07-25T05:53:49.432Z,90.39
2023-07-25T05:54:22.510Z,90.40
2023-07-25T05:54:55.714Z,90.16
2023-07-25T05:55:28.937Z,90.21
2023-07-25T05:56:02.170Z,90.21
2023-07-25T05:56:35.437Z,90.03
2023-07-25T05:57:09.080Z,89.95
2023-07-25T05:57:42.221Z,89.87
2023-07-25T05:58:16.523Z,89.76
2023-07-25T05:58:50.157Z,89.91
2023-07-25T05:59:23.363Z,89.92
2023-07-25T05:59:56.638Z,89.97
2023-07-25T06:00:29.868Z,89.80
2023-07-25T06:01:03.227Z,89.83
2023-07-25T06:01:37.034Z,89.65
2023-07-25T06:02:11.243Z,89.76
2023-07-25T06:02:44.524Z,89.74
2023-07-25T06:03:18.515Z,89.75
2023-07-25T06:03:51.798Z,89.60
2023-07-25T06:04:25.022Z,89.55
2023-07-25T06:04:58.347Z,89.47
2023-07-25T06:05:31.594Z,89.40
2023-07-25T06:06:04.735Z,89.44
2023-07-25T06:06:37.816Z,89.33
2023-07-25T06:07:11.068Z,89.21
2023-07-25T06:07:44.199Z,89.21
2023-07-25T06:08:17.482Z,89.28
2023-07-25T06:08:50.844Z,89.26
2023-07-25T06:09:24.178Z,89.09
2023-07-25T06:09:57.416Z,88.80
2023-07-25T06:10:30.820Z,88.72
2023-07-25T06:11:04.068Z,88.69
2023-07-25T06:11:37.715Z,88.65
2023-07-25T06:12:11.342Z,88.69
2023-07-25T06:12:45.782Z,88.65
2023-07-25T06:13:19.181Z,88.63
2023-07-25T06:13:54.226Z,88.58
2023-07-25T06:14:27.920Z,88.67
2023-07-25T06:15:01.163Z,88.55
2023-07-25T06:15:37.834Z,88.44
2023-07-25T06:16:10.998Z,88.50
2023-07-25T06:16:44.384Z,88.44
2023-07-25T06:17:18.084Z,88.31
2023-07-25T06:17:51.946Z,88.27
2023-07-25T06:18:25.167Z,88.31
2023-07-25T06:18:58.305Z,88.25
2023-07-25T06:19:31.567Z,88.12
2023-07-25T06:20:05.057Z,88.06
2023-07-25T06:20:38.213Z,87.91
2023-07-25T06:21:11.976Z,87.81
2023-07-25T06:21:45.190Z,87.81
2023-07-25T06:22:18.509Z,87.77
2023-07-25T06:22:51.703Z,87.64
2023-07-25T06:23:24.801Z,87.54
2023-07-25T06:23:58.049Z,87.30
2023-07-25T06:24:31.438Z,87.39
2023-07-25T06:25:06.088Z,87.08
2023-07-25T06:25:39.366Z,87.01
2023-07-25T06:26:12.548Z,86.85
2023-07-25T06:26:46.025Z,86.97
2023-07-25T06:27:19.545Z,86.76
2023-07-25T06:27:52.887Z,86.56
2023-07-25T06:28:26.007Z,86.41
2023-07-25T06:28:59.687Z,86.22
2023-07-25T06:29:33.239Z,86.13
2023-07-25T06:30:07.401Z,85.97
2023-07-25T06:30:40.753Z,85.80
2023-07-25T06:31:14.151Z,85.64
2023-07-25T06:31:47.556Z,85.51
2023-07-25T06:32:20.857Z,85.32
2023-07-25T06:34:59.841Z,85.18
2023-07-25T06:35:33.109Z,85.19
2023-07-25T06:36:06.422Z,85.03
2023-07-25T06:36:39.512Z,84.98
2023-07-25T06:37:12.749Z,84.88
2023-07-25T06:37:45.976Z,84.74
2023-07-25T06:38:19.176Z,84.80
2023-07-25T06:38:52.349Z,84.75
2023-07-25T06:39:25.548Z,84.86
2023-07-25T06:40:01.160Z,84.78
2023-07-25T06:40:34.382Z,84.57
2023-07-25T06:41:07.589Z,84.43
2023-07-25T06:41:41.597Z,84.25
2023-07-25T06:42:14.943Z,84.06
2023-07-25T06:42:48.178Z,84.02
2023-07-25T06:43:21.412Z,83.95
2023-07-25T06:43:54.679Z,84.02
2023-07-25T06:44:27.844Z,83.94
2023-07-25T06:45:01.096Z,83.82
2023-07-25T06:45:34.422Z,83.89
2023-07-25T06:46:07.582Z,83.85
2023-07-25T06:46:40.870Z,83.76
2023-07-25T06:47:14.241Z,83.76
2023-07-25T06:47:47.464Z,83.69
2023-07-25T06:48:20.775Z,83.61
2023-07-25T06:48:54.121Z,83.70
2023-07-25T06:49:27.332Z,83.56
2023-07-25T06:50:01.538Z,83.48
2023-07-25T06:50:34.839Z,83.45
2023-07-25T06:51:08.385Z,83.30
2023-07-25T06:51:41.694Z,83.25
2023-07-25T06:52:15.084Z,83.20
2023-07-25T06:52:48.402Z,83.16
2023-07-25T06:53:21.715Z,83.07
2023-07-25T06:53:54.936Z,83.17
2023-07-25T06:54:28.216Z,83.03
2023-07-25T06:55:01.412Z,83.05
2023-07-25T06:55:35.944Z,82.88
2023-07-25T06:56:09.290Z,82.85
2023-07-25T06:56:42.680Z,82.97
2023-07-25T06:57:15.953Z,82.96
2023-07-25T06:57:49.148Z,82.90
2023-07-25T06:58:22.615Z,83.06
2023-07-25T06:58:55.831Z,83.07
2023-07-25T06:59:31.220Z,82.87
2023-07-25T07:00:04.948Z,82.78
2023-07-25T07:00:39.051Z,82.69
2023-07-25T07:01:12.319Z,82.54
2023-07-25T07:01:45.697Z,82.48
2023-07-25T07:02:18.936Z,82.36
2023-07-25T07:02:52.216Z,82.32
2023-07-25T07:03:26.102Z,82.34
2023-07-25T07:04:00.001Z,82.36
2023-07-25T07:04:33.147Z,82.38
2023-07-25T07:05:19.350Z,82.51
2023-07-25T07:05:59.906Z,82.55
2023-07-25T07:06:33.218Z,82.69
2023-07-25T07:07:07.979Z,82.63
2023-07-25T07:07:42.441Z,82.59
2023-07-25T07:08:15.892Z,82.60
2023-07-25T07:08:49.362Z,82.59
2023-07-25T07:09:22.722Z,82.65
2023-07-25T07:09:56.354Z,82.70
2023-07-25T07:10:29.633Z,82.63
2023-07-25T07:11:03.098Z,82.53
2023-07-25T07:11:36.396Z,82.49
2023-07-25T07:12:09.970Z,82.27
2023-07-25T07:12:49.252Z,82.03
2023-07-25T07:13:24.006Z,81.91
2023-07-25T07:13:57.313Z,81.72
2023-07-25T07:14:30.518Z,81.67